sensor_id;sensor_type;location;lat;lon;timestamp;P1;durP1;ratioP1;P2;durP2;ratioP2
20699;SDS011;10511;51.232;9.420;2023-04-25T00:01:30;1.10;;;1.10;;
20699;SDS011;10511;51.232;9.420;2023-04-25T00:04:00;1.10;;;1.10;;
20699;SDS011;10511;51.232;9.420;2023-04-25T00:06:27;1.10;;;1.10;;
20699;SDS011;10511;51.232;9.420;2023-04-25T00:08:54;1.10;;;1.10;;
20699;SDS011;10511;51.232;9.420;2023-04-25T00:11:22;1.10;;;1.10;;
20699;SDS011;10511;51.232;9.420;2023-04-25T00:13:48;1.10;;;1.10;;
20699;SDS011;10511;51.232;9.420;2023-04-25T00:16:16;1.00;;;1.00;;
20699;SDS011;10511;51.232;9.420;2023-04-25T00:18:43;1.00;;;1.00;;
20699;SDS011;10511;51.232;9.420;2023-04-25T00:21:17;1.00;;;1.00;;
20699;SDS011;10511;51.232;9.420;2023-04-25T00:23:44;1.00;;;1.00;;
20699;SDS011;10511;51.232;9.420;2023-04-25T00:26:11;1.00;;;1.00;;
20699;SDS011;10511;51.232;9.420;2023-04-25T00:28:38;1.00;;;1.00;;
20699;SDS011;10511;51.232;9.420;2023-04-25T00:31:06;1.10;;;1.10;;
20699;SDS011;10511;51.232;9.420;2023-04-25T00:33:32;1.00;;;1.00;;
20699;SDS011;10511;51.232;9.420;2023-04-25T00:35:59;1.10;;;1.10;;
20699;SDS011;10511;51.232;9.420;2023-04-25T00:38:28;1.10;;;1.10;;
20699;SDS011;10511;51.232;9.420;2023-04-25T00:40:55;1.17;;;1.17;;
20699;SDS011;10511;51.232;9.420;2023-04-25T00:43:22;1.20;;;1.20;;
20699;SDS011;10511;51.232;9.420;2023-04-25T00:45:51;1.10;;;1.10;;
20699;SDS011;10511;51.232;9.420;2023-04-25T00:48:20;1.13;;;1.13;;
20699;SDS011;10511;51.232;9.420;2023-04-25T00:50:49;1.10;;;1.10;;
20699;SDS011;10511;51.232;9.420;2023-04-25T00:53:18;1.20;;;1.20;;
20699;SDS011;10511;51.232;9.420;2023-04-25T00:55:47;1.10;;;1.10;;
20699;SDS011;10511;51.232;9.420;2023-04-25T00:58:15;1.10;;;1.10;;
20699;SDS011;10511;51.232;9.420;2023-04-25T01:00:43;1.30;;;1.30;;
20699;SDS011;10511;51.232;9.420;2023-04-25T01:03:11;1.20;;;1.20;;
20699;SDS011;10511;51.232;9.420;2023-04-25T01:05:39;1.23;;;1.23;;
20699;SDS011;10511;51.232;9.420;2023-04-25T01:08:06;1.17;;;1.17;;
20699;SDS011;10511;51.232;9.420;2023-04-25T01:10:33;1.30;;;1.30;;
20699;SDS011;10511;51.232;9.420;2023-04-25T01:13:03;1.40;;;1.40;;
20699;SDS011;10511;51.232;9.420;2023-04-25T01:15:30;1.30;;;1.30;;
20699;SDS011;10511;51.232;9.420;2023-04-25T01:17:57;1.30;;;1.30;;
20699;SDS011;10511;51.232;9.420;2023-04-25T01:20:25;1.30;;;1.30;;
20699;SDS011;10511;51.232;9.420;2023-04-25T01:22:54;1.30;;;1.30;;
20699;SDS011;10511;51.232;9.420;2023-04-25T01:25:22;1.20;;;1.20;;
20699;SDS011;10511;51.232;9.420;2023-04-25T01:27:49;1.30;;;1.30;;
20699;SDS011;10511;51.232;9.420;2023-04-25T01:30:16;1.20;;;1.20;;
20699;SDS011;10511;51.232;9.420;2023-04-25T01:32:43;1.20;;;1.20;;
20699;SDS011;10511;51.232;9.420;2023-04-25T01:35:11;1.20;;;1.20;;
20699;SDS011;10511;51.232;9.420;2023-04-25T01:37:38;1.20;;;1.20;;
20699;SDS011;10511;51.232;9.420;2023-04-25T01:40:07;1.20;;;1.20;;
20699;SDS011;10511;51.232;9.420;2023-04-25T01:42:39;1.10;;;1.10;;
20699;SDS011;10511;51.232;9.420;2023-04-25T01:45:09;1.20;;;1.20;;
20699;SDS011;10511;51.232;9.420;2023-04-25T01:47:36;1.20;;;1.20;;
20699;SDS011;10511;51.232;9.420;2023-04-25T01:50:05;1.20;;;1.20;;
20699;SDS011;10511;51.232;9.420;2023-04-25T01:52:33;1.10;;;1.10;;
20699;SDS011;10511;51.232;9.420;2023-04-25T01:54:59;1.10;;;1.10;;
20699;SDS011;10511;51.232;9.420;2023-04-25T01:57:29;1.10;;;1.10;;
20699;SDS011;10511;51.232;9.420;2023-04-25T01:59:58;1.10;;;1.10;;
20699;SDS011;10511;51.232;9.420;2023-04-25T02:02:26;1.10;;;1.10;;
20699;SDS011;10511;51.232;9.420;2023-04-25T02:04:53;1.10;;;1.10;;
20699;SDS011;10511;51.232;9.420;2023-04-25T02:07:21;1.10;;;1.10;;
20699;SDS011;10511;51.232;9.420;2023-04-25T02:09:48;1.10;;;1.10;;
20699;SDS011;10511;51.232;9.420;2023-04-25T02:12:15;1.10;;;1.10;;
20699;SDS011;10511;51.232;9.420;2023-04-25T02:14:43;1.10;;;1.10;;
20699;SDS011;10511;51.232;9.420;2023-04-25T02:17:10;1.10;;;1.10;;
20699;SDS011;10511;51.232;9.420;2023-04-25T02:19:37;1.10;;;1.10;;
20699;SDS011;10511;51.232;9.420;2023-04-25T02:22:04;1.10;;;1.10;;
20699;SDS011;10511;51.232;9.420;2023-04-25T02:24:31;1.00;;;1.00;;
20699;SDS011;10511;51.232;9.420;2023-04-25T02:26:58;1.10;;;1.10;;
20699;SDS011;10511;51.232;9.420;2023-04-25T02:29:25;1.07;;;1.07;;
20699;SDS011;10511;51.232;9.420;2023-04-25T02:31:54;1.10;;;1.10;;
20699;SDS011;10511;51.232;9.420;2023-04-25T02:34:21;1.20;;;1.20;;
20699;SDS011;10511;51.232;9.420;2023-04-25T02:36:48;1.17;;;1.17;;
20699;SDS011;10511;51.232;9.420;2023-04-25T02:39:15;1.20;;;1.20;;
20699;SDS011;10511;51.232;9.420;2023-04-25T02:41:42;1.20;;;1.20;;
20699;SDS011;10511;51.232;9.420;2023-04-25T02:44:09;1.10;;;1.10;;
20699;SDS011;10511;51.232;9.420;2023-04-25T02:46:36;1.20;;;1.20;;
20699;SDS011;10511;51.232;9.420;2023-04-25T02:49:04;1.20;;;1.20;;
20699;SDS011;10511;51.232;9.420;2023-04-25T02:51:31;1.20;;;1.20;;
20699;SDS011;10511;51.232;9.420;2023-04-25T02:53:58;1.10;;;1.10;;
20699;SDS011;10511;51.232;9.420;2023-04-25T02:56:25;1.20;;;1.20;;
20699;SDS011;10511;51.232;9.420;2023-04-25T02:58:52;1.20;;;1.20;;
20699;SDS011;10511;51.232;9.420;2023-04-25T03:01:19;1.10;;;1.10;;
20699;SDS011;10511;51.232;9.420;2023-04-25T03:03:46;1.20;;;1.20;;
20699;SDS011;10511;51.232;9.420;2023-04-25T03:06:14;1.10;;;1.10;;
20699;SDS011;10511;51.232;9.420;2023-04-25T03:08:41;1.20;;;1.20;;
20699;SDS011;10511;51.232;9.420;2023-04-25T03:11:08;1.20;;;1.20;;
20699;SDS011;10511;51.232;9.420;2023-04-25T03:13:35;1.20;;;1.20;;
20699;SDS011;10511;51.232;9.420;2023-04-25T03:16:02;1.13;;;1.13;;
20699;SDS011;10511;51.232;9.420;2023-04-25T03:18:29;1.20;;;1.20;;
20699;SDS011;10511;51.232;9.420;2023-04-25T03:20:56;1.10;;;1.10;;
20699;SDS011;10511;51.232;9.420;2023-04-25T03:23:24;1.20;;;1.20;;
20699;SDS011;10511;51.232;9.420;2023-04-25T03:25:51;1.10;;;1.10;;
20699;SDS011;10511;51.232;9.420;2023-04-25T03:28:18;1.20;;;1.20;;
20699;SDS011;10511;51.232;9.420;2023-04-25T03:30:45;1.30;;;1.30;;
20699;SDS011;10511;51.232;9.420;2023-04-25T03:33:11;1.30;;;1.30;;
20699;SDS011;10511;51.232;9.420;2023-04-25T03:35:38;1.20;;;1.20;;
20699;SDS011;10511;51.232;9.420;2023-04-25T03:38:05;1.20;;;1.20;;
20699;SDS011;10511;51.232;9.420;2023-04-25T03:40:34;1.30;;;1.30;;
20699;SDS011;10511;51.232;9.420;2023-04-25T03:43:00;1.20;;;1.20;;
20699;SDS011;10511;51.232;9.420;2023-04-25T03:45:27;1.30;;;1.30;;
20699;SDS011;10511;51.232;9.420;2023-04-25T03:47:54;1.20;;;1.20;;
20699;SDS011;10511;51.232;9.420;2023-04-25T03:50:21;1.13;;;1.13;;
20699;SDS011;10511;51.232;9.420;2023-04-25T03:52:48;1.20;;;1.20;;
20699;SDS011;10511;51.232;9.420;2023-04-25T03:55:15;1.20;;;1.20;;
20699;SDS011;10511;51.232;9.420;2023-04-25T03:57:43;1.20;;;1.20;;
20699;SDS011;10511;51.232;9.420;2023-04-25T04:00:10;1.17;;;1.17;;
20699;SDS011;10511;51.232;9.420;2023-04-25T04:02:38;1.20;;;1.20;;
20699;SDS011;10511;51.232;9.420;2023-04-25T04:05:05;1.20;;;1.20;;
20699;SDS011;10511;51.232;9.420;2023-04-25T04:07:32;1.30;;;1.30;;
20699;SDS011;10511;51.232;9.420;2023-04-25T04:10:04;1.20;;;1.20;;
20699;SDS011;10511;51.232;9.420;2023-04-25T04:12:32;1.20;;;1.20;;
20699;SDS011;10511;51.232;9.420;2023-04-25T04:15:00;1.20;;;1.20;;
20699;SDS011;10511;51.232;9.420;2023-04-25T04:17:28;1.20;;;1.20;;
20699;SDS011;10511;51.232;9.420;2023-04-25T04:19:55;1.30;;;1.30;;
20699;SDS011;10511;51.232;9.420;2023-04-25T04:22:22;1.20;;;1.20;;
20699;SDS011;10511;51.232;9.420;2023-04-25T04:24:50;1.30;;;1.30;;
20699;SDS011;10511;51.232;9.420;2023-04-25T04:27:18;1.30;;;1.30;;
20699;SDS011;10511;51.232;9.420;2023-04-25T04:29:45;1.30;;;1.30;;
20699;SDS011;10511;51.232;9.420;2023-04-25T04:32:14;1.33;;;1.33;;
20699;SDS011;10511;51.232;9.420;2023-04-25T04:34:42;1.27;;;1.27;;
20699;SDS011;10511;51.232;9.420;2023-04-25T04:37:09;1.20;;;1.20;;
20699;SDS011;10511;51.232;9.420;2023-04-25T04:39:38;1.20;;;1.20;;
20699;SDS011;10511;51.232;9.420;2023-04-25T04:42:05;1.20;;;1.20;;
20699;SDS011;10511;51.232;9.420;2023-04-25T04:44:33;1.13;;;1.13;;
20699;SDS011;10511;51.232;9.420;2023-04-25T04:47:00;1.20;;;1.20;;
20699;SDS011;10511;51.232;9.420;2023-04-25T04:49:30;1.20;;;1.20;;
20699;SDS011;10511;51.232;9.420;2023-04-25T04:51:56;1.30;;;1.30;;
20699;SDS011;10511;51.232;9.420;2023-04-25T04:54:24;1.20;;;1.20;;
20699;SDS011;10511;51.232;9.420;2023-04-25T04:56:52;1.20;;;1.20;;
20699;SDS011;10511;51.232;9.420;2023-04-25T04:59:18;1.10;;;1.10;;
20699;SDS011;10511;51.232;9.420;2023-04-25T05:01:46;1.20;;;1.20;;
20699;SDS011;10511;51.232;9.420;2023-04-25T05:04:13;1.10;;;1.10;;
20699;SDS011;10511;51.232;9.420;2023-04-25T05:06:41;1.13;;;1.13;;
20699;SDS011;10511;51.232;9.420;2023-04-25T05:09:09;1.20;;;1.20;;
20699;SDS011;10511;51.232;9.420;2023-04-25T05:11:36;1.20;;;1.20;;
20699;SDS011;10511;51.232;9.420;2023-04-25T05:14:03;1.20;;;1.20;;
20699;SDS011;10511;51.232;9.420;2023-04-25T05:16:29;1.20;;;1.20;;
20699;SDS011;10511;51.232;9.420;2023-04-25T05:18:56;1.00;;;1.00;;
20699;SDS011;10511;51.232;9.420;2023-04-25T05:21:23;1.23;;;1.23;;
20699;SDS011;10511;51.232;9.420;2023-04-25T05:23:51;1.20;;;1.20;;
20699;SDS011;10511;51.232;9.420;2023-04-25T05:26:18;1.10;;;1.10;;
20699;SDS011;10511;51.232;9.420;2023-04-25T05:28:45;1.30;;;1.30;;
20699;SDS011;10511;51.232;9.420;2023-04-25T05:31:12;1.20;;;1.20;;
20699;SDS011;10511;51.232;9.420;2023-04-25T05:33:39;1.20;;;1.20;;
20699;SDS011;10511;51.232;9.420;2023-04-25T05:36:06;1.20;;;1.20;;
20699;SDS011;10511;51.232;9.420;2023-04-25T05:38:34;1.20;;;1.20;;
20699;SDS011;10511;51.232;9.420;2023-04-25T05:41:02;1.10;;;1.10;;
20699;SDS011;10511;51.232;9.420;2023-04-25T05:43:29;1.10;;;1.10;;
20699;SDS011;10511;51.232;9.420;2023-04-25T05:45:56;1.10;;;1.10;;
20699;SDS011;10511;51.232;9.420;2023-04-25T05:48:23;1.10;;;1.10;;
20699;SDS011;10511;51.232;9.420;2023-04-25T05:50:50;1.10;;;1.10;;
20699;SDS011;10511;51.232;9.420;2023-04-25T05:53:18;1.10;;;1.10;;
20699;SDS011;10511;51.232;9.420;2023-04-25T05:55:46;1.10;;;1.10;;
20699;SDS011;10511;51.232;9.420;2023-04-25T05:58:14;1.20;;;1.20;;
20699;SDS011;10511;51.232;9.420;2023-04-25T06:00:41;1.10;;;1.10;;
20699;SDS011;10511;51.232;9.420;2023-04-25T06:03:08;1.10;;;1.10;;
20699;SDS011;10511;51.232;9.420;2023-04-25T06:05:35;1.00;;;1.00;;
20699;SDS011;10511;51.232;9.420;2023-04-25T06:08:02;1.10;;;1.10;;
20699;SDS011;10511;51.232;9.420;2023-04-25T06:10:29;1.00;;;1.00;;
20699;SDS011;10511;51.232;9.420;2023-04-25T06:12:57;1.20;;;1.20;;
20699;SDS011;10511;51.232;9.420;2023-04-25T06:15:25;1.20;;;1.20;;
20699;SDS011;10511;51.232;9.420;2023-04-25T06:17:52;1.20;;;1.20;;
20699;SDS011;10511;51.232;9.420;2023-04-25T06:20:19;1.10;;;1.10;;
20699;SDS011;10511;51.232;9.420;2023-04-25T06:22:49;1.17;;;1.17;;
20699;SDS011;10511;51.232;9.420;2023-04-25T06:25:16;1.20;;;1.20;;
20699;SDS011;10511;51.232;9.420;2023-04-25T06:27:43;1.17;;;1.17;;
20699;SDS011;10511;51.232;9.420;2023-04-25T06:30:10;1.13;;;1.13;;
20699;SDS011;10511;51.232;9.420;2023-04-25T06:32:39;1.17;;;1.17;;
20699;SDS011;10511;51.232;9.420;2023-04-25T06:35:06;1.10;;;1.10;;
20699;SDS011;10511;51.232;9.420;2023-04-25T06:37:33;1.20;;;1.20;;
20699;SDS011;10511;51.232;9.420;2023-04-25T06:40:00;1.10;;;1.10;;
20699;SDS011;10511;51.232;9.420;2023-04-25T06:42:35;1.17;;;1.17;;
20699;SDS011;10511;51.232;9.420;2023-04-25T06:45:09;1.17;;;1.17;;
20699;SDS011;10511;51.232;9.420;2023-04-25T06:47:36;1.20;;;1.20;;
20699;SDS011;10511;51.232;9.420;2023-04-25T06:50:05;1.20;;;1.20;;
20699;SDS011;10511;51.232;9.420;2023-04-25T06:52:32;1.20;;;1.20;;
20699;SDS011;10511;51.232;9.420;2023-04-25T06:54:59;1.07;;;1.07;;
20699;SDS011;10511;51.232;9.420;2023-04-25T06:57:26;1.10;;;1.10;;
20699;SDS011;10511;51.232;9.420;2023-04-25T06:59:53;1.20;;;1.20;;
20699;SDS011;10511;51.232;9.420;2023-04-25T07:02:20;1.10;;;1.10;;
20699;SDS011;10511;51.232;9.420;2023-04-25T07:04:47;1.20;;;1.20;;
20699;SDS011;10511;51.232;9.420;2023-04-25T07:07:15;1.10;;;1.10;;
20699;SDS011;10511;51.232;9.420;2023-04-25T07:09:43;1.07;;;1.07;;
20699;SDS011;10511;51.232;9.420;2023-04-25T07:12:10;1.00;;;1.00;;
20699;SDS011;10511;51.232;9.420;2023-04-25T07:14:37;1.07;;;1.07;;
20699;SDS011;10511;51.232;9.420;2023-04-25T07:17:04;1.00;;;1.00;;
20699;SDS011;10511;51.232;9.420;2023-04-25T07:19:31;1.10;;;1.10;;
20699;SDS011;10511;51.232;9.420;2023-04-25T07:21:58;1.10;;;1.10;;
20699;SDS011;10511;51.232;9.420;2023-04-25T07:24:26;1.00;;;1.00;;
20699;SDS011;10511;51.232;9.420;2023-04-25T07:26:53;1.00;;;1.00;;
20699;SDS011;10511;51.232;9.420;2023-04-25T07:29:20;1.10;;;1.10;;
20699;SDS011;10511;51.232;9.420;2023-04-25T07:31:47;1.10;;;1.10;;
20699;SDS011;10511;51.232;9.420;2023-04-25T07:34:14;1.00;;;1.00;;
20699;SDS011;10511;51.232;9.420;2023-04-25T07:36:41;1.00;;;1.00;;
20699;SDS011;10511;51.232;9.420;2023-04-25T07:39:10;1.00;;;1.00;;
20699;SDS011;10511;51.232;9.420;2023-04-25T07:41:42;1.00;;;1.00;;
20699;SDS011;10511;51.232;9.420;2023-04-25T07:44:14;1.00;;;1.00;;
20699;SDS011;10511;51.232;9.420;2023-04-25T07:46:41;1.10;;;1.10;;
20699;SDS011;10511;51.232;9.420;2023-04-25T07:49:12;1.00;;;1.00;;
20699;SDS011;10511;51.232;9.420;2023-04-25T07:51:38;1.10;;;1.10;;
20699;SDS011;10511;51.232;9.420;2023-04-25T07:54:06;1.10;;;1.10;;
20699;SDS011;10511;51.232;9.420;2023-04-25T07:56:33;1.10;;;1.10;;
20699;SDS011;10511;51.232;9.420;2023-04-25T07:59:02;1.00;;;1.00;;
20699;SDS011;10511;51.232;9.420;2023-04-25T08:01:28;1.00;;;1.00;;
20699;SDS011;10511;51.232;9.420;2023-04-25T08:03:55;1.07;;;1.07;;
20699;SDS011;10511;51.232;9.420;2023-04-25T08:06:22;1.00;;;1.00;;
20699;SDS011;10511;51.232;9.420;2023-04-25T08:08:49;1.00;;;1.00;;
20699;SDS011;10511;51.232;9.420;2023-04-25T08:11:16;1.00;;;1.00;;
20699;SDS011;10511;51.232;9.420;2023-04-25T08:13:43;1.00;;;1.00;;
20699;SDS011;10511;51.232;9.420;2023-04-25T08:16:11;1.00;;;1.00;;
20699;SDS011;10511;51.232;9.420;2023-04-25T08:18:38;1.00;;;1.00;;
20699;SDS011;10511;51.232;9.420;2023-04-25T08:21:05;1.10;;;1.10;;
20699;SDS011;10511;51.232;9.420;2023-04-25T08:23:33;1.00;;;1.00;;
20699;SDS011;10511;51.232;9.420;2023-04-25T08:26:00;1.20;;;1.20;;
20699;SDS011;10511;51.232;9.420;2023-04-25T08:28:28;1.00;;;1.00;;
20699;SDS011;10511;51.232;9.420;2023-04-25T08:30:54;1.00;;;1.00;;
20699;SDS011;10511;51.232;9.420;2023-04-25T08:33:23;1.10;;;1.10;;
20699;SDS011;10511;51.232;9.420;2023-04-25T08:35:50;1.10;;;1.10;;
20699;SDS011;10511;51.232;9.420;2023-04-25T08:38:17;1.10;;;1.10;;
20699;SDS011;10511;51.232;9.420;2023-04-25T08:40:44;1.00;;;1.00;;
20699;SDS011;10511;51.232;9.420;2023-04-25T08:43:16;1.07;;;1.07;;
20699;SDS011;10511;51.232;9.420;2023-04-25T08:45:45;1.10;;;1.10;;
20699;SDS011;10511;51.232;9.420;2023-04-25T08:48:12;1.10;;;1.10;;
20699;SDS011;10511;51.232;9.420;2023-04-25T08:50:44;1.27;;;1.27;;
20699;SDS011;10511;51.232;9.420;2023-04-25T08:53:15;1.10;;;1.10;;
20699;SDS011;10511;51.232;9.420;2023-04-25T08:55:45;1.00;;;1.00;;
20699;SDS011;10511;51.232;9.420;2023-04-25T08:58:12;1.30;;;1.30;;
20699;SDS011;10511;51.232;9.420;2023-04-25T09:00:40;1.10;;;1.10;;
20699;SDS011;10511;51.232;9.420;2023-04-25T09:03:07;1.10;;;1.10;;
20699;SDS011;10511;51.232;9.420;2023-04-25T09:05:34;1.00;;;1.00;;
20699;SDS011;10511;51.232;9.420;2023-04-25T09:08:02;1.10;;;1.10;;
20699;SDS011;10511;51.232;9.420;2023-04-25T09:10:29;1.10;;;1.10;;
20699;SDS011;10511;51.232;9.420;2023-04-25T09:13:03;1.00;;;1.00;;
20699;SDS011;10511;51.232;9.420;2023-04-25T09:15:31;1.10;;;1.10;;
20699;SDS011;10511;51.232;9.420;2023-04-25T09:17:59;1.00;;;1.00;;
20699;SDS011;10511;51.232;9.420;2023-04-25T09:20:26;1.00;;;1.00;;
20699;SDS011;10511;51.232;9.420;2023-04-25T09:23:04;1.10;;;1.10;;
20699;SDS011;10511;51.232;9.420;2023-04-25T09:25:35;1.00;;;1.00;;
20699;SDS011;10511;51.232;9.420;2023-04-25T09:28:04;1.10;;;1.10;;
20699;SDS011;10511;51.232;9.420;2023-04-25T09:30:32;1.10;;;1.10;;
20699;SDS011;10511;51.232;9.420;2023-04-25T09:33:06;1.10;;;1.10;;
20699;SDS011;10511;51.232;9.420;2023-04-25T09:35:37;1.00;;;1.00;;
20699;SDS011;10511;51.232;9.420;2023-04-25T09:38:10;1.10;;;1.10;;
20699;SDS011;10511;51.232;9.420;2023-04-25T09:40:41;1.10;;;1.10;;
20699;SDS011;10511;51.232;9.420;2023-04-25T09:43:10;1.00;;;1.00;;
20699;SDS011;10511;51.232;9.420;2023-04-25T09:45:44;1.00;;;1.00;;
20699;SDS011;10511;51.232;9.420;2023-04-25T09:48:12;0.90;;;0.90;;
20699;SDS011;10511;51.232;9.420;2023-04-25T09:50:44;1.00;;;1.00;;
20699;SDS011;10511;51.232;9.420;2023-04-25T09:53:14;1.00;;;1.00;;
20699;SDS011;10511;51.232;9.420;2023-04-25T09:55:41;1.03;;;1.03;;
20699;SDS011;10511;51.232;9.420;2023-04-25T09:58:10;1.00;;;1.00;;
20699;SDS011;10511;51.232;9.420;2023-04-25T10:00:39;1.00;;;1.00;;
20699;SDS011;10511;51.232;9.420;2023-04-25T10:03:07;1.03;;;1.03;;
20699;SDS011;10511;51.232;9.420;2023-04-25T10:05:34;1.00;;;1.00;;
20699;SDS011;10511;51.232;9.420;2023-04-25T10:08:03;1.07;;;1.07;;
20699;SDS011;10511;51.232;9.420;2023-04-25T10:10:33;0.93;;;0.93;;
20699;SDS011;10511;51.232;9.420;2023-04-25T10:13:04;1.00;;;1.00;;
20699;SDS011;10511;51.232;9.420;2023-04-25T10:15:33;1.00;;;1.00;;
20699;SDS011;10511;51.232;9.420;2023-04-25T10:18:01;1.10;;;1.10;;
20699;SDS011;10511;51.232;9.420;2023-04-25T10:20:28;1.17;;;1.17;;
20699;SDS011;10511;51.232;9.420;2023-04-25T10:22:57;1.00;;;1.00;;
20699;SDS011;10511;51.232;9.420;2023-04-25T10:25:29;1.00;;;1.00;;
20699;SDS011;10511;51.232;9.420;2023-04-25T10:27:58;1.00;;;1.00;;
20699;SDS011;10511;51.232;9.420;2023-04-25T10:30:27;1.00;;;1.00;;
20699;SDS011;10511;51.232;9.420;2023-04-25T10:32:54;1.00;;;1.00;;
20699;SDS011;10511;51.232;9.420;2023-04-25T10:35:24;1.00;;;1.00;;
20699;SDS011;10511;51.232;9.420;2023-04-25T10:40:40;1.00;;;1.00;;
20699;SDS011;10511;51.232;9.420;2023-04-25T10:46:14;1.00;;;1.00;;
20699;SDS011;10511;51.232;9.420;2023-04-25T10:48:46;1.00;;;1.00;;
20699;SDS011;10511;51.232;9.420;2023-04-25T10:51:21;0.93;;;0.93;;
20699;SDS011;10511;51.232;9.420;2023-04-25T10:53:59;1.00;;;1.00;;
20699;SDS011;10511;51.232;9.420;2023-04-25T10:56:27;1.00;;;1.00;;
20699;SDS011;10511;51.232;9.420;2023-04-25T10:59:05;1.00;;;1.00;;
20699;SDS011;10511;51.232;9.420;2023-04-25T11:01:37;1.00;;;1.00;;
20699;SDS011;10511;51.232;9.420;2023-04-25T11:04:05;1.00;;;1.00;;
20699;SDS011;10511;51.232;9.420;2023-04-25T11:06:46;1.00;;;1.00;;
20699;SDS011;10511;51.232;9.420;2023-04-25T11:09:24;1.00;;;1.00;;
20699;SDS011;10511;51.232;9.420;2023-04-25T11:11:53;1.10;;;1.10;;
20699;SDS011;10511;51.232;9.420;2023-04-25T11:14:21;1.03;;;1.03;;
20699;SDS011;10511;51.232;9.420;2023-04-25T11:16:53;1.00;;;1.00;;
20699;SDS011;10511;51.232;9.420;2023-04-25T11:19:21;1.00;;;1.00;;
20699;SDS011;10511;51.232;9.420;2023-04-25T11:21:48;1.00;;;1.00;;
20699;SDS011;10511;51.232;9.420;2023-04-25T11:24:15;1.07;;;1.07;;
20699;SDS011;10511;51.232;9.420;2023-04-25T11:26:42;1.00;;;1.00;;
20699;SDS011;10511;51.232;9.420;2023-04-25T11:29:12;1.10;;;1.10;;
20699;SDS011;10511;51.232;9.420;2023-04-25T11:31:42;1.00;;;1.00;;
20699;SDS011;10511;51.232;9.420;2023-04-25T11:34:11;1.00;;;1.00;;
20699;SDS011;10511;51.232;9.420;2023-04-25T11:36:42;0.90;;;0.90;;
20699;SDS011;10511;51.232;9.420;2023-04-25T11:39:10;1.00;;;1.00;;
20699;SDS011;10511;51.232;9.420;2023-04-25T11:41:37;1.10;;;1.10;;
20699;SDS011;10511;51.232;9.420;2023-04-25T11:44:05;0.90;;;0.90;;
20699;SDS011;10511;51.232;9.420;2023-04-25T11:46:33;1.00;;;1.00;;
20699;SDS011;10511;51.232;9.420;2023-04-25T11:49:00;1.00;;;1.00;;
20699;SDS011;10511;51.232;9.420;2023-04-25T11:51:29;1.10;;;1.10;;
20699;SDS011;10511;51.232;9.420;2023-04-25T11:53:56;1.00;;;1.00;;
20699;SDS011;10511;51.232;9.420;2023-04-25T11:56:23;1.00;;;1.00;;
20699;SDS011;10511;51.232;9.420;2023-04-25T11:58:53;1.00;;;1.00;;
20699;SDS011;10511;51.232;9.420;2023-04-25T12:01:25;1.00;;;1.00;;
20699;SDS011;10511;51.232;9.420;2023-04-25T12:03:53;1.00;;;1.00;;
20699;SDS011;10511;51.232;9.420;2023-04-25T12:06:20;1.00;;;1.00;;
20699;SDS011;10511;51.232;9.420;2023-04-25T12:09:00;1.00;;;1.00;;
20699;SDS011;10511;51.232;9.420;2023-04-25T12:11:28;1.00;;;1.00;;
20699;SDS011;10511;51.232;9.420;2023-04-25T12:13:56;1.03;;;1.03;;
20699;SDS011;10511;51.232;9.420;2023-04-25T12:16:28;1.03;;;1.03;;
20699;SDS011;10511;51.232;9.420;2023-04-25T12:18:55;1.00;;;1.00;;
20699;SDS011;10511;51.232;9.420;2023-04-25T12:21:23;1.00;;;1.00;;
20699;SDS011;10511;51.232;9.420;2023-04-25T12:23:54;1.00;;;1.00;;
20699;SDS011;10511;51.232;9.420;2023-04-25T12:26:22;1.00;;;1.00;;
20699;SDS011;10511;51.232;9.420;2023-04-25T12:28:50;1.00;;;1.00;;
20699;SDS011;10511;51.232;9.420;2023-04-25T12:31:17;1.00;;;1.00;;
20699;SDS011;10511;51.232;9.420;2023-04-25T12:33:44;1.00;;;1.00;;
20699;SDS011;10511;51.232;9.420;2023-04-25T12:36:12;1.00;;;1.00;;
20699;SDS011;10511;51.232;9.420;2023-04-25T12:38:42;1.47;;;1.47;;
20699;SDS011;10511;51.232;9.420;2023-04-25T12:41:09;1.00;;;1.00;;
20699;SDS011;10511;51.232;9.420;2023-04-25T12:43:37;0.90;;;0.90;;
20699;SDS011;10511;51.232;9.420;2023-04-25T12:46:04;1.00;;;1.00;;
20699;SDS011;10511;51.232;9.420;2023-04-25T12:48:31;1.00;;;1.00;;
20699;SDS011;10511;51.232;9.420;2023-04-25T12:50:58;1.00;;;1.00;;
20699;SDS011;10511;51.232;9.420;2023-04-25T12:53:25;1.00;;;1.00;;
20699;SDS011;10511;51.232;9.420;2023-04-25T12:55:52;0.97;;;0.97;;
20699;SDS011;10511;51.232;9.420;2023-04-25T12:58:19;1.00;;;1.00;;
20699;SDS011;10511;51.232;9.420;2023-04-25T13:00:47;1.00;;;1.00;;
20699;SDS011;10511;51.232;9.420;2023-04-25T13:03:14;1.00;;;1.00;;
20699;SDS011;10511;51.232;9.420;2023-04-25T13:05:41;1.40;;;1.40;;
20699;SDS011;10511;51.232;9.420;2023-04-25T13:08:08;1.03;;;1.03;;
20699;SDS011;10511;51.232;9.420;2023-04-25T13:10:35;1.03;;;1.03;;
20699;SDS011;10511;51.232;9.420;2023-04-25T13:13:04;1.00;;;1.00;;
20699;SDS011;10511;51.232;9.420;2023-04-25T13:15:32;1.00;;;1.00;;
20699;SDS011;10511;51.232;9.420;2023-04-25T13:18:01;1.10;;;1.10;;
20699;SDS011;10511;51.232;9.420;2023-04-25T13:20:28;1.00;;;1.00;;
20699;SDS011;10511;51.232;9.420;2023-04-25T13:22:55;0.90;;;0.90;;
20699;SDS011;10511;51.232;9.420;2023-04-25T13:25:22;0.90;;;0.90;;
20699;SDS011;10511;51.232;9.420;2023-04-25T13:27:49;0.90;;;0.90;;
20699;SDS011;10511;51.232;9.420;2023-04-25T13:30:16;1.00;;;1.00;;
20699;SDS011;10511;51.232;9.420;2023-04-25T13:32:43;1.00;;;1.00;;
20699;SDS011;10511;51.232;9.420;2023-04-25T13:35:12;1.10;;;1.10;;
20699;SDS011;10511;51.232;9.420;2023-04-25T13:37:40;1.10;;;1.10;;
20699;SDS011;10511;51.232;9.420;2023-04-25T13:40:07;1.70;;;1.67;;
20699;SDS011;10511;51.232;9.420;2023-04-25T13:42:36;0.90;;;0.90;;
20699;SDS011;10511;51.232;9.420;2023-04-25T13:45:03;0.90;;;0.90;;
20699;SDS011;10511;51.232;9.420;2023-04-25T13:47:31;0.83;;;0.83;;
20699;SDS011;10511;51.232;9.420;2023-04-25T13:49:58;1.00;;;1.00;;
20699;SDS011;10511;51.232;9.420;2023-04-25T13:52:29;0.90;;;0.90;;
20699;SDS011;10511;51.232;9.420;2023-04-25T13:54:55;0.80;;;0.80;;
20699;SDS011;10511;51.232;9.420;2023-04-25T13:57:22;0.90;;;0.90;;
20699;SDS011;10511;51.232;9.420;2023-04-25T13:59:49;0.80;;;0.80;;
20699;SDS011;10511;51.232;9.420;2023-04-25T14:02:17;0.90;;;0.90;;
20699;SDS011;10511;51.232;9.420;2023-04-25T14:04:43;0.90;;;0.90;;
20699;SDS011;10511;51.232;9.420;2023-04-25T14:07:10;0.90;;;0.90;;
20699;SDS011;10511;51.232;9.420;2023-04-25T14:09:39;0.90;;;0.90;;
20699;SDS011;10511;51.232;9.420;2023-04-25T14:12:05;0.90;;;0.90;;
20699;SDS011;10511;51.232;9.420;2023-04-25T14:14:32;0.90;;;0.90;;
20699;SDS011;10511;51.232;9.420;2023-04-25T14:16:59;0.90;;;0.90;;
20699;SDS011;10511;51.232;9.420;2023-04-25T14:19:26;0.90;;;0.90;;
20699;SDS011;10511;51.232;9.420;2023-04-25T14:21:53;1.00;;;1.00;;
20699;SDS011;10511;51.232;9.420;2023-04-25T14:24:20;1.00;;;1.00;;
20699;SDS011;10511;51.232;9.420;2023-04-25T14:26:48;1.00;;;1.00;;
20699;SDS011;10511;51.232;9.420;2023-04-25T14:29:15;1.00;;;1.00;;
20699;SDS011;10511;51.232;9.420;2023-04-25T14:31:42;0.90;;;0.90;;
20699;SDS011;10511;51.232;9.420;2023-04-25T14:34:10;0.90;;;0.90;;
20699;SDS011;10511;51.232;9.420;2023-04-25T14:36:36;1.00;;;1.00;;
20699;SDS011;10511;51.232;9.420;2023-04-25T14:39:03;0.90;;;0.90;;
20699;SDS011;10511;51.232;9.420;2023-04-25T14:41:31;0.93;;;0.93;;
20699;SDS011;10511;51.232;9.420;2023-04-25T14:43:59;0.80;;;0.80;;
20699;SDS011;10511;51.232;9.420;2023-04-25T14:46:26;0.90;;;0.90;;
20699;SDS011;10511;51.232;9.420;2023-04-25T14:48:53;0.90;;;0.90;;
20699;SDS011;10511;51.232;9.420;2023-04-25T14:51:21;0.90;;;0.90;;
20699;SDS011;10511;51.232;9.420;2023-04-25T14:53:47;0.90;;;0.90;;
20699;SDS011;10511;51.232;9.420;2023-04-25T14:56:15;1.00;;;1.00;;
20699;SDS011;10511;51.232;9.420;2023-04-25T14:58:42;1.00;;;1.00;;